Time,TemperatureF,DewpointF,PressureIn,WindDirection,WindDirectionDegrees,WindSpeedMPH,WindSpeedGustMPH,Humidity,HourlyPrecipIn,Conditions,Clouds,dailyrainin,SoftwareType,DateUTC
2013-05-17 00:01:00,55.5,42.0,29.80,WSW,240,0.0,6.0,62,0.00,,,0.00,weatherlink.com 1.10,2013-05-17 04:01:00,
2013-05-17 00:16:00,54.6,43.0,29.80,West,259,1.0,5.0,64,0.00,,,0.00,weatherlink.com 1.10,2013-05-17 04:16:00,
2013-05-17 00:31:00,53.6,42.0,29.81,West,263,1.0,2.0,66,0.00,,,0.00,weatherlink.com 1.10,2013-05-17 04:31:00,
2013-05-17 00:46:00,53.0,42.0,29.82,WSW,246,0.0,5.0,67,0.00,,,0.00,weatherlink.com 1.10,2013-05-17 04:46:00,
2013-05-17 01:01:00,52.5,42.0,29.82,WSW,256,0.0,4.0,68,0.00,,,0.00,weatherlink.com 1.10,2013-05-17 05:01:00,
2013-05-17 01:16:00,51.7,42.0,29.82,West,267,0.0,2.0,69,0.00,,,0.00,weatherlink.com 1.10,2013-05-17 05:16:00,
2013-05-17 01:31:00,50.1,41.0,29.82,WSW,253,0.0,1.0,72,0.00,,,0.00,weatherlink.com 1.10,2013-05-17 05:31:00,
2013-05-17 01:46:00,49.1,42.0,29.82,West,267,1.0,2.0,75,0.00,,,0.00,weatherlink.com 1.10,2013-05-17 05:46:00,
2013-05-17 02:01:00,47.8,41.0,29.82,West,267,0.0,1.0,78,0.00,,,0.00,weatherlink.com 1.10,2013-05-17 06:01:00,
2013-05-17 02:16:00,47.3,41.0,29.83,West,276,0.0,1.0,79,0.00,,,0.00,weatherlink.com 1.10,2013-05-17 06:16:00,
2013-05-17 02:31:00,46.4,41.0,29.83,West,276,0.0,0.0,81,0.00,,,0.00,weatherlink.com 1.10,2013-05-17 06:31:00,
2013-05-17 02:47:00,45.0,40.0,29.83,West,276,0.0,0.0,83,0.00,,,0.00,weatherlink.com 1.10,2013-05-17 06:47:00,
2013-05-17 03:02:00,43.7,40.0,29.84,West,275,0.0,0.0,86,0.00,,,0.00,weatherlink.com 1.10,2013-05-17 07:02:00,
2013-05-17 03:17:00,42.9,40.0,29.83,West,276,0.0,0.0,88,0.00,,,0.00,weatherlink.com 1.10,2013-05-17 07:17:00,
2013-05-17 03:32:00,42.2,39.0,29.84,West,276,0.0,1.0,89,0.00,,,0.00,weatherlink.com 1.10,2013-05-17 07:32:00,
2013-05-17 03:47:00,41.2,39.0,29.85,West,276,0.0,0.0,91,0.00,,,0.00,weatherlink.com 1.10,2013-05-17 07:47:00,
2013-05-17 04:02:00,41.0,39.0,29.86,North,350,1.0,3.0,93,0.00,,,0.00,weatherlink.com 1.10,2013-05-17 08:02:00,
2013-05-17 04:17:00,44.6,40.0,29.86,SW,236,0.0,4.0,84,0.00,,,0.00,weatherlink.com 1.10,2013-05-17 08:17:00,
2013-05-17 04:32:00,43.5,40.0,29.87,North,4,0.0,1.0,86,0.00,,,0.00,weatherlink.com 1.10,2013-05-17 08:32:00,
2013-05-17 04:47:00,43.4,40.0,29.88,NE,47,0.0,2.0,86,0.00,,,0.00,weatherlink.com 1.10,2013-05-17 08:47:00,
2013-05-17 05:02:00,43.6,39.0,29.88,NE,43,0.0,0.0,85,0.00,,,0.00,weatherlink.com 1.10,2013-05-17 09:02:00,
2013-05-17 05:17:00,43.2,39.0,29.89,SW,231,1.0,1.0,86,0.00,,,0.00,weatherlink.com 1.10,2013-05-17 09:17:00,
2013-05-17 05:32:00,42.7,39.0,29.90,WSW,252,1.0,3.0,88,0.00,,,0.00,weatherlink.com 1.10,2013-05-17 09:32:00,
2013-05-17 05:48:00,43.3,39.0,29.91,WSW,248,2.0,4.0,86,0.00,,,0.00,weatherlink.com 1.10,2013-05-17 09:48:00,
2013-05-17 06:02:00,44.7,40.0,29.92,NNW,333,1.0,7.0,83,0.00,,,0.00,weatherlink.com 1.10,2013-05-17 10:02:00,
2013-05-17 06:17:00,45.5,40.0,29.92,NW,311,2.0,7.0,81,0.00,,,0.00,weatherlink.com 1.10,2013-05-17 10:17:00,
2013-05-17 06:32:00,46.3,40.0,29.93,WSW,246,7.0,10.0,78,0.00,,,0.00,weatherlink.com 1.10,2013-05-17 10:32:00,
2013-05-17 06:47:00,46.9,40.0,29.94,West,273,2.0,9.0,76,0.00,,,0.00,weatherlink.com 1.10,2013-05-17 10:47:00,
2013-05-17 07:02:00,48.0,40.0,29.94,West,269,6.0,11.0,74,0.00,,,0.00,weatherlink.com 1.10,2013-05-17 11:02:00,
2013-05-17 07:17:00,48.6,40.0,29.94,NNW,338,3.0,15.0,71,0.00,,,0.00,weatherlink.com 1.10,2013-05-17 11:17:00,
2013-05-17 07:32:00,49.7,40.0,29.96,SSW,203,1.0,10.0,69,0.00,,,0.00,weatherlink.com 1.10,2013-05-17 11:32:00,
2013-05-17 07:47:00,50.6,40.0,29.96,NE,51,4.0,10.0,67,0.00,,,0.00,weatherlink.com 1.10,2013-05-17 11:47:00,
2013-05-17 08:02:00,52.0,40.0,29.96,SW,217,4.0,10.0,64,0.00,,,0.00,weatherlink.com 1.10,2013-05-17 12:02:00,
2013-05-17 08:17:00,52.4,40.0,29.96,WNW,302,2.0,15.0,62,0.00,,,0.00,weatherlink.com 1.10,2013-05-17 12:17:00,
2013-05-17 08:32:00,53.6,41.0,29.97,WNW,283,3.0,11.0,62,0.00,,,0.00,weatherlink.com 1.10,2013-05-17 12:32:00,
2013-05-17 08:47:00,54.0,41.0,29.97,NNE,25,1.0,12.0,61,0.00,,,0.00,weatherlink.com 1.10,2013-05-17 12:47:00,
2013-05-17 09:03:00,54.3,40.0,29.97,WSW,253,11.0,11.0,60,0.00,,,0.00,weatherlink.com 1.10,2013-05-17 13:03:00,
2013-05-17 09:18:00,55.7,41.0,29.97,West,277,8.0,14.0,58,0.00,,,0.00,weatherlink.com 1.10,2013-05-17 13:18:00,
2013-05-17 09:33:00,55.4,41.0,29.97,WNW,294,5.0,14.0,58,0.00,,,0.00,weatherlink.com 1.10,2013-05-17 13:33:00,
2013-05-17 09:48:00,56.6,42.0,29.97,WSW,240,8.0,13.0,58,0.00,,,0.00,weatherlink.com 1.10,2013-05-17 13:48:00,
2013-05-17 10:03:00,56.9,41.0,29.97,WNW,297,2.0,15.0,55,0.00,,,0.00,weatherlink.com 1.10,2013-05-17 14:03:00,
2013-05-17 10:18:00,56.3,41.0,29.98,NW,315,2.0,15.0,56,0.00,,,0.00,weatherlink.com 1.10,2013-05-17 14:18:00,
2013-05-17 10:33:00,57.7,41.0,29.98,NW,311,6.0,13.0,55,0.00,,,0.00,weatherlink.com 1.10,2013-05-17 14:33:00,
2013-05-17 10:48:00,58.7,42.0,29.99,NNW,328,8.0,13.0,54,0.00,,,0.00,weatherlink.com 1.10,2013-05-17 14:48:00,
2013-05-17 11:03:00,58.6,42.0,30.00,ENE,67,10.0,12.0,54,0.00,,,0.00,weatherlink.com 1.10,2013-05-17 15:03:00,
2013-05-17 11:18:00,59.0,41.0,30.00,WNW,302,6.0,12.0,52,0.00,,,0.00,weatherlink.com 1.10,2013-05-17 15:18:00,
2013-05-17 11:33:00,59.6,42.0,30.00,NNW,335,1.0,13.0,52,0.00,,,0.00,weatherlink.com 1.10,2013-05-17 15:33:00,
2013-05-17 11:48:00,58.4,42.0,30.00,NNW,348,3.0,14.0,54,0.00,,,0.00,weatherlink.com 1.10,2013-05-17 15:48:00,
2013-05-17 12:03:00,58.7,42.0,30.00,NW,309,4.0,15.0,55,0.00,,,0.00,weatherlink.com 1.10,2013-05-17 16:03:00,
2013-05-17 12:18:00,58.9,43.0,30.01,NNE,18,1.0,8.0,55,0.00,,,0.00,weatherlink.com 1.10,2013-05-17 16:18:00,
2013-05-17 12:33:00,59.5,41.0,30.01,North,352,4.0,14.0,50,0.00,,,0.00,weatherlink.com 1.10,2013-05-17 16:33:00,
2013-05-17 12:48:00,61.1,42.0,30.00,North,357,3.0,14.0,49,0.00,,,0.00,weatherlink.com 1.10,2013-05-17 16:48:00,
2013-05-17 13:03:00,61.1,42.0,30.00,NNE,18,1.0,10.0,49,0.00,,,0.00,weatherlink.com 1.10,2013-05-17 17:03:00,
2013-05-17 13:18:00,62.2,40.0,30.01,WNW,302,9.0,11.0,45,0.00,,,0.00,weatherlink.com 1.10,2013-05-17 17:18:00,
2013-05-17 13:33:00,63.0,42.0,30.01,SW,225,5.0,12.0,47,0.00,,,0.00,weatherlink.com 1.10,2013-05-17 17:33:00,
2013-05-17 13:48:00,63.7,43.0,30.01,NW,318,2.0,12.0,48,0.00,,,0.00,weatherlink.com 1.10,2013-05-17 17:48:00,
2013-05-17 14:03:00,63.9,40.0,30.02,NE,37,2.0,16.0,41,0.00,,,0.00,weatherlink.com 1.10,2013-05-17 18:03:00,
2013-05-17 14:18:00,64.4,40.0,30.01,West,262,10.0,11.0,41,0.00,,,0.00,weatherlink.com 1.10,2013-05-17 18:18:00,
2013-05-17 14:33:00,64.5,39.0,30.02,West,274,2.0,13.0,39,0.00,,,0.00,weatherlink.com 1.10,2013-05-17 18:33:00,
2013-05-17 14:48:00,64.5,41.0,30.02,NNW,345,4.0,16.0,42,0.00,,,0.00,weatherlink.com 1.10,2013-05-17 18:48:00,
2013-05-17 15:03:00,65.7,40.0,30.02,SE,144,2.0,16.0,39,0.00,,,0.00,weatherlink.com 1.10,2013-05-17 19:03:00,
2013-05-17 15:18:00,64.6,38.0,30.02,West,260,3.0,12.0,38,0.00,,,0.00,weatherlink.com 1.10,2013-05-17 19:18:00,
2013-05-17 15:33:00,66.1,43.0,30.03,WNW,297,1.0,6.0,44,0.00,,,0.00,weatherlink.com 1.10,2013-05-17 19:33:00,
2013-05-17 15:48:00,65.7,38.0,30.03,NNW,333,2.0,12.0,36,0.00,,,0.00,weatherlink.com 1.10,2013-05-17 19:48:00,
2013-05-17 16:03:00,65.8,38.0,30.04,NNW,337,4.0,12.0,36,0.00,,,0.00,weatherlink.com 1.10,2013-05-17 20:03:00,
2013-05-17 16:18:00,65.9,37.0,30.04,ESE,118,3.0,10.0,35,0.00,,,0.00,weatherlink.com 1.10,2013-05-17 20:18:00,
2013-05-17 16:33:00,66.2,35.0,30.05,NNE,32,2.0,12.0,32,0.00,,,0.00,weatherlink.com 1.10,2013-05-17 20:33:00,
2013-05-17 16:48:00,65.6,36.0,30.05,WNW,291,6.0,9.0,33,0.00,,,0.00,weatherlink.com 1.10,2013-05-17 20:48:00,
2013-05-17 17:04:00,65.4,37.0,30.06,WSW,246,5.0,9.0,35,0.00,,,0.00,weatherlink.com 1.10,2013-05-17 21:04:00,
2013-05-17 17:19:00,66.2,35.0,30.06,WSW,252,10.0,11.0,32,0.00,,,0.00,weatherlink.com 1.10,2013-05-17 21:19:00,
2013-05-17 17:34:00,65.7,35.0,30.07,WNW,283,3.0,11.0,32,0.00,,,0.00,weatherlink.com 1.10,2013-05-17 21:34:00,
2013-05-17 17:49:00,65.2,34.0,30.07,WSW,255,7.0,10.0,32,0.00,,,0.00,weatherlink.com 1.10,2013-05-17 21:49:00,
2013-05-17 18:04:00,64.4,37.0,30.08,East,94,1.0,7.0,36,0.00,,,0.00,weatherlink.com 1.10,2013-05-17 22:04:00,
2013-05-17 18:19:00,64.7,37.0,30.09,NNE,15,2.0,5.0,36,0.00,,,0.00,weatherlink.com 1.10,2013-05-17 22:19:00,
2013-05-17 18:34:00,64.7,36.0,30.09,West,262,3.0,7.0,35,0.00,,,0.00,weatherlink.com 1.10,2013-05-17 22:34:00,
2013-05-17 18:49:00,63.6,37.0,30.10,NW,326,0.0,10.0,37,0.00,,,0.00,weatherlink.com 1.10,2013-05-17 22:49:00,
2013-05-17 19:04:00,62.6,35.0,30.10,ENE,70,1.0,7.0,36,0.00,,,0.00,weatherlink.com 1.10,2013-05-17 23:04:00,
2013-05-17 19:19:00,61.0,36.0,30.11,WNW,288,1.0,5.0,39,0.00,,,0.00,weatherlink.com 1.10,2013-05-17 23:19:00,
2013-05-17 19:34:00,59.7,34.0,30.11,SW,228,1.0,4.0,39,0.00,,,0.00,weatherlink.com 1.10,2013-05-17 23:34:00,
2013-05-17 19:49:00,58.5,35.0,30.12,SW,236,1.0,2.0,42,0.00,,,0.00,weatherlink.com 1.10,2013-05-17 23:49:00,
2013-05-17 20:04:00,56.1,38.0,30.12,SW,236,0.0,1.0,51,0.00,,,0.00,weatherlink.com 1.10,2013-05-18 00:04:00,
2013-05-17 20:19:00,53.0,38.0,30.13,SW,236,0.0,0.0,57,0.00,,,0.00,weatherlink.com 1.10,2013-05-18 00:19:00,
2013-05-17 20:34:00,50.5,38.0,30.14,SW,236,0.0,0.0,63,0.00,,,0.00,weatherlink.com 1.10,2013-05-18 00:34:00,
2013-05-17 20:49:00,47.9,38.0,30.15,SW,236,0.0,0.0,69,0.00,,,0.00,weatherlink.com 1.10,2013-05-18 00:49:00,
2013-05-17 21:04:00,46.5,39.0,30.16,SW,236,0.0,0.0,74,0.00,,,0.00,weatherlink.com 1.10,2013-05-18 01:04:00,
2013-05-17 21:19:00,44.7,39.0,30.17,SW,236,0.0,0.0,79,0.00,,,0.00,weatherlink.com 1.10,2013-05-18 01:19:00,
2013-05-17 21:34:00,43.5,38.0,30.17,SW,236,0.0,0.0,81,0.00,,,0.00,weatherlink.com 1.10,2013-05-18 01:34:00,
2013-05-17 21:49:00,44.3,39.0,30.18,WSW,248,0.0,0.0,81,0.00,,,0.00,weatherlink.com 1.10,2013-05-18 01:49:00,
2013-05-17 22:04:00,43.1,39.0,30.18,WSW,248,0.0,0.0,84,0.00,,,0.00,weatherlink.com 1.10,2013-05-18 02:04:00,
2013-05-17 22:19:00,42.4,39.0,30.19,NNW,333,0.0,0.0,86,0.00,,,0.00,weatherlink.com 1.10,2013-05-18 02:19:00,
2013-05-17 22:34:00,42.0,39.0,30.19,NNW,333,0.0,0.0,88,0.00,,,0.00,weatherlink.com 1.10,2013-05-18 02:34:00,
2013-05-17 22:49:00,41.5,39.0,30.19,NNW,333,0.0,0.0,89,0.00,,,0.00,weatherlink.com 1.10,2013-05-18 02:49:00,
2013-05-17 23:04:00,40.4,38.0,30.19,NNW,333,0.0,0.0,90,0.00,,,0.00,weatherlink.com 1.10,2013-05-18 03:04:00,
2013-05-17 23:19:00,39.7,38.0,30.20,NNW,333,0.0,0.0,92,0.00,,,0.00,weatherlink.com 1.10,2013-05-18 03:19:00,
2013-05-17 23:34:00,39.3,37.0,30.20,NNW,333,0.0,0.0,92,0.00,,,0.00,weatherlink.com 1.10,2013-05-18 03:34:00,
2013-05-17 23:49:00,38.9,37.0,30.20,NNW,333,0.0,0.0,93,0.00,,,0.00,weatherlink.com 1.10,2013-05-18 03:49:00,